^^
Station Historical Data
Daily Summary for January 18, 2018 Units:  English    Metric   Both
« Previous Day
Next Day »
Daily Weekly Monthly Yearly Custom
  High: Low: Average:
Temperature: TemperatureF °F 27.0 °F 39.2 °F
Dew Point: DewpointF °F 14.8 °F 20.5 °F
Humidity: Humidity% 25% 49%
Wind Speed: WindSpeedMPHmph 0.0mph 0mph
Wind Gust: WindSpeedGustMPHmph - -
Wind- - North
Pressure: PressureIn in 30.30 in -
Precipitation: 0.00 in    
Historical Graphs
 
 
Tabular Data for January 18, 2018
Time Temperature Dew Point Pressure Wind Wind Speed Wind Gust Humidity Rainfall Rate (Hourly) solar Conditions
TemperatureF °F DewpointF °F PressureIn in Calm     Humidity% HourlyPrecipIn in SolarRadiationWatts/m^2 W/m2 Conditions
00:00 43.0 °F 28.8 °F 30.32 in Calm     57% 0.00 in 0.0 W/m2 CLR
00:10 39.0 °F 21.5 °F 30.33 in Calm     49% 0.00 in 0.0 W/m2 CLR
00:20 39.0 °F 21.5 °F 30.33 in Calm     49% 0.00 in 0.0 W/m2 CLR
00:30 39.0 °F 21.5 °F 30.33 in Calm     49% 0.00 in 0.0 W/m2 CLR
00:40 39.0 °F 21.5 °F 30.33 in Calm     49% 0.00 in 0.0 W/m2 CLR
00:45 39.0 °F 21.5 °F 30.33 in Calm     49% 0.00 in 0.0 W/m2 CLR
00:55 39.0 °F 21.5 °F 30.33 in Calm     49% 0.00 in 0.0 W/m2 CLR
01:00 39.0 °F 21.5 °F 30.33 in Calm     49% 0.00 in 0.0 W/m2 CLR
01:10 37.0 °F 19.6 °F 30.33 in Calm     49% 0.00 in 0.0 W/m2 CLR
01:15 37.0 °F 19.6 °F 30.33 in Calm     49% 0.00 in 0.0 W/m2 CLR
01:25 37.0 °F 19.6 °F 30.33 in Calm     49% 0.00 in 0.0 W/m2 CLR
01:30 37.0 °F 19.6 °F 30.33 in Calm     49% 0.00 in 0.0 W/m2 CLR
01:40 37.0 °F 19.6 °F 30.33 in Calm     49% 0.00 in 0.0 W/m2 CLR
01:45 37.0 °F 19.6 °F 30.33 in Calm     49% 0.00 in 0.0 W/m2 CLR
01:55 37.0 °F 19.6 °F 30.33 in Calm     49% 0.00 in 0.0 W/m2 CLR
02:00 37.0 °F 19.6 °F 30.33 in Calm     49% 0.00 in 0.0 W/m2 CLR
02:10 34.0 °F 17.7 °F 30.34 in Calm     51% 0.00 in 0.0 W/m2 CLR
02:15 34.0 °F 17.7 °F 30.34 in Calm     51% 0.00 in 0.0 W/m2 CLR
02:25 34.0 °F 17.7 °F 30.34 in Calm     51% 0.00 in 0.0 W/m2 CLR
02:40 34.0 °F 17.7 °F 30.34 in Calm     51% 0.00 in 0.0 W/m2 CLR
02:45 34.0 °F 17.7 °F 30.34 in Calm     51% 0.00 in 0.0 W/m2 CLR
02:55 34.0 °F 17.7 °F 30.34 in Calm     51% 0.00 in 0.0 W/m2 CLR
03:00 34.0 °F 17.7 °F 30.34 in Calm     51% 0.00 in 0.0 W/m2 CLR
03:10 32.0 °F 16.8 °F 30.34 in Calm     53% 0.00 in 0.0 W/m2 CLR
03:15 32.0 °F 16.8 °F 30.34 in Calm     53% 0.00 in 0.0 W/m2 CLR
03:25 32.0 °F 16.8 °F 30.34 in Calm     53% 0.00 in 0.0 W/m2 CLR
03:30 32.0 °F 16.8 °F 30.34 in Calm     53% 0.00 in 0.0 W/m2 CLR
03:40 32.0 °F 16.8 °F 30.34 in Calm     53% 0.00 in 0.0 W/m2 CLR
03:45 32.0 °F 16.8 °F 30.34 in Calm     53% 0.00 in 0.0 W/m2 CLR
03:55 32.0 °F 16.8 °F 30.34 in Calm     53% 0.00 in 0.0 W/m2 CLR
04:00 32.0 °F 16.8 °F 30.34 in Calm     53% 0.00 in 0.0 W/m2 CLR
04:10 30.0 °F 15.8 °F 30.34 in Calm     55% 0.00 in 0.0 W/m2 CLR
04:15 30.0 °F 15.8 °F 30.34 in Calm     55% 0.00 in 0.0 W/m2 CLR
04:25 30.0 °F 15.8 °F 30.34 in Calm     55% 0.00 in 0.0 W/m2 CLR
04:30 30.0 °F 15.8 °F 30.34 in Calm     55% 0.00 in 0.0 W/m2 CLR
04:40 30.0 °F 15.8 °F 30.34 in Calm     55% 0.00 in 0.0 W/m2 CLR
04:45 30.0 °F 15.8 °F 30.34 in Calm     55% 0.00 in 0.0 W/m2 CLR
04:55 30.0 °F 15.8 °F 30.34 in Calm     55% 0.00 in 0.0 W/m2 CLR
05:00 30.0 °F 15.8 °F 30.34 in Calm     55% 0.00 in 0.0 W/m2 CLR
05:10 28.0 °F 14.8 °F 30.35 in Calm     57% 0.00 in 0.0 W/m2 CLR
05:15 28.0 °F 14.8 °F 30.35 in Calm     57% 0.00 in 0.0 W/m2 CLR
05:25 28.0 °F 14.8 °F 30.35 in Calm     57% 0.00 in 0.0 W/m2 CLR
05:30 28.0 °F 14.8 °F 30.35 in Calm     57% 0.00 in 0.0 W/m2 CLR
05:40 28.0 °F 14.8 °F 30.35 in Calm     57% 0.00 in 0.0 W/m2 CLR
05:45 28.0 °F 14.8 °F 30.35 in Calm     57% 0.00 in 0.0 W/m2 CLR
05:55 28.0 °F 14.8 °F 30.35 in Calm     57% 0.00 in 0.0 W/m2 CLR
06:00 28.0 °F 14.8 °F 30.35 in Calm     57% 0.00 in 0.0 W/m2 CLR
06:10 28.0 °F 14.8 °F 30.36 in Calm     57% 0.00 in 0.0 W/m2 CLR
06:15 28.0 °F 14.8 °F 30.36 in Calm     57% 0.00 in 0.0 W/m2 CLR
06:25 28.0 °F 14.8 °F 30.36 in Calm     57% 0.00 in 0.0 W/m2 CLR
06:30 28.0 °F 14.8 °F 30.36 in Calm     57% 0.00 in 0.0 W/m2 CLR
06:40 28.0 °F 14.8 °F 30.36 in Calm     57% 0.00 in 0.0 W/m2 CLR
06:45 28.0 °F 14.8 °F 30.36 in Calm     57% 0.00 in 0.0 W/m2 CLR
06:55 28.0 °F 14.8 °F 30.36 in Calm     57% 0.00 in 0.0 W/m2 CLR
07:00 28.0 °F 14.8 °F 30.36 in Calm     57% 0.00 in 0.0 W/m2 CLR
07:10 27.0 °F 15.7 °F 30.37 in Calm     62% 0.00 in 0.0 W/m2 CLR
07:15 27.0 °F 15.7 °F 30.37 in Calm     62% 0.00 in 0.0 W/m2 CLR
07:25 27.0 °F 15.7 °F 30.37 in Calm     62% 0.00 in 0.0 W/m2 CLR
07:30 27.0 °F 15.7 °F 30.37 in Calm     62% 0.00 in 0.0 W/m2 CLR
07:40 27.0 °F 15.7 °F 30.37 in Calm     62% 0.00 in 0.0 W/m2 CLR
07:45 27.0 °F 15.7 °F 30.37 in Calm     62% 0.00 in 0.0 W/m2 CLR
07:55 27.0 °F 15.7 °F 30.37 in Calm     62% 0.00 in 0.0 W/m2 CLR
08:00 27.0 °F 15.7 °F 30.37 in Calm     62% 0.00 in 0.0 W/m2 CLR
08:10 28.0 °F 15.9 °F 30.39 in Calm     60% 0.00 in 0.0 W/m2 CLR
08:15 28.0 °F 15.9 °F 30.39 in Calm     60% 0.00 in 0.0 W/m2 CLR
08:25 28.0 °F 15.9 °F 30.39 in Calm     60% 0.00 in 0.0 W/m2 CLR
08:30 28.0 °F 15.9 °F 30.39 in Calm     60% 0.00 in 0.0 W/m2 CLR
08:40 28.0 °F 15.9 °F 30.39 in Calm     60% 0.00 in 0.0 W/m2 CLR
08:45 28.0 °F 15.9 °F 30.39 in Calm     60% 0.00 in 0.0 W/m2 CLR
08:55 28.0 °F 15.9 °F 30.39 in Calm     60% 0.00 in 0.0 W/m2 CLR
09:00 28.0 °F 15.9 °F 30.39 in Calm     60% 0.00 in 0.0 W/m2 CLR
09:10 32.0 °F 18.9 °F 30.41 in Calm     58% 0.00 in 0.0 W/m2 CLR
09:15 32.0 °F 18.9 °F 30.41 in Calm     58% 0.00 in 0.0 W/m2 CLR
09:25 32.0 °F 18.9 °F 30.41 in Calm     58% 0.00 in 0.0 W/m2 CLR
09:30 32.0 °F 18.9 °F 30.41 in Calm     58% 0.00 in 0.0 W/m2 CLR
09:40 32.0 °F 18.9 °F 30.41 in Calm     58% 0.00 in 0.0 W/m2 CLR
09:45 32.0 °F 18.9 °F 30.41 in Calm     58% 0.00 in 0.0 W/m2 CLR
09:55 32.0 °F 18.9 °F 30.41 in Calm     58% 0.00 in 0.0 W/m2 CLR
10:00 32.0 °F 18.9 °F 30.41 in Calm     58% 0.00 in 0.0 W/m2 CLR
10:10 36.0 °F 19.6 °F 30.42 in Calm     51% 0.00 in 0.0 W/m2 CLR
10:15 36.0 °F 19.6 °F 30.42 in Calm     51% 0.00 in 0.0 W/m2 CLR
10:25 36.0 °F 19.6 °F 30.42 in Calm     51% 0.00 in 0.0 W/m2 CLR
10:30 36.0 °F 19.6 °F 30.42 in Calm     51% 0.00 in 0.0 W/m2 CLR
10:40 36.0 °F 19.6 °F 30.42 in Calm     51% 0.00 in 0.0 W/m2 CLR
10:45 36.0 °F 19.6 °F 30.42 in Calm     51% 0.00 in 0.0 W/m2 CLR
10:55 36.0 °F 19.6 °F 30.42 in Calm     51% 0.00 in 0.0 W/m2 CLR
11:00 36.0 °F 19.6 °F 30.42 in Calm     51% 0.00 in 0.0 W/m2 CLR
11:10 39.9 °F 19.7 °F 30.41 in Calm     44% 0.00 in 0.0 W/m2 CLR
11:15 39.9 °F 19.7 °F 30.41 in Calm     44% 0.00 in 0.0 W/m2 CLR
11:25 39.9 °F 19.7 °F 30.41 in Calm     44% 0.00 in 0.0 W/m2 CLR
11:30 39.9 °F 19.7 °F 30.41 in Calm     44% 0.00 in 0.0 W/m2 CLR
11:40 39.9 °F 19.7 °F 30.41 in Calm     44% 0.00 in 0.0 W/m2 CLR
11:45 39.9 °F 19.7 °F 30.41 in Calm     44% 0.00 in 0.0 W/m2 CLR
11:55 39.9 °F 19.7 °F 30.41 in Calm     44% 0.00 in 0.0 W/m2 CLR
12:00 39.9 °F 19.7 °F 30.41 in Calm     44% 0.00 in 0.0 W/m2 CLR
12:10 44.1 °F 17.4 °F 30.39 in Calm     34% 0.00 in 0.0 W/m2 CLR
12:15 44.1 °F 17.4 °F 30.39 in Calm     34% 0.00 in 0.0 W/m2 CLR
12:25 44.1 °F 17.4 °F 30.39 in Calm     34% 0.00 in 0.0 W/m2 CLR
12:30 44.1 °F 17.4 °F 30.39 in Calm     34% 0.00 in 0.0 W/m2 CLR
12:40 44.1 °F 17.4 °F 30.39 in Calm     34% 0.00 in 0.0 W/m2 CLR
12:45 44.1 °F 17.4 °F 30.39 in Calm     34% 0.00 in 0.0 W/m2 CLR
12:55 44.1 °F 17.4 °F 30.39 in Calm     34% 0.00 in 0.0 W/m2 CLR
13:00 44.1 °F 17.4 °F 30.39 in Calm     34% 0.00 in 0.0 W/m2 CLR
13:10 48.0 °F 17.2 °F 30.36 in Calm     29% 0.00 in 0.0 W/m2 CLR
13:15 48.0 °F 17.2 °F 30.36 in Calm     29% 0.00 in 0.0 W/m2 CLR
13:24 48.0 °F 17.2 °F 30.36 in Calm     29% 0.00 in 0.0 W/m2 CLR
13:30 48.0 °F 17.2 °F 30.36 in Calm     29% 0.00 in 0.0 W/m2 CLR
13:39 48.0 °F 17.2 °F 30.36 in Calm     29% 0.00 in 0.0 W/m2 CLR
13:44 48.0 °F 17.2 °F 30.36 in Calm     29% 0.00 in 0.0 W/m2 CLR
13:54 48.0 °F 17.2 °F 30.36 in Calm     29% 0.00 in 0.0 W/m2 CLR
13:59 48.0 °F 17.2 °F 30.36 in Calm     29% 0.00 in 0.0 W/m2 CLR
14:09 50.0 °F 16.4 °F 30.32 in Calm     26% 0.00 in 0.0 W/m2 CLR
14:14 50.0 °F 16.4 °F 30.32 in Calm     26% 0.00 in 0.0 W/m2 CLR
14:24 50.0 °F 16.4 °F 30.32 in Calm     26% 0.00 in 0.0 W/m2 CLR
14:29 50.0 °F 16.4 °F 30.32 in Calm     26% 0.00 in 0.0 W/m2 CLR
14:39 50.0 °F 16.4 °F 30.32 in Calm     26% 0.00 in 0.0 W/m2 CLR
14:44 50.0 °F 16.4 °F 30.32 in Calm     26% 0.00 in 0.0 W/m2 CLR
14:54 50.0 °F 16.4 °F 30.32 in Calm     26% 0.00 in 0.0 W/m2 CLR
14:59 50.0 °F 16.4 °F 30.32 in Calm     26% 0.00 in 0.0 W/m2 CLR
15:09 52.0 °F 17.2 °F 30.31 in Calm     25% 0.00 in 0.0 W/m2 CLR
15:14 52.0 °F 17.2 °F 30.31 in Calm     25% 0.00 in 0.0 W/m2 CLR
15:24 52.0 °F 17.2 °F 30.31 in Calm     25% 0.00 in 0.0 W/m2 CLR
15:29 52.0 °F 17.2 °F 30.31 in Calm     25% 0.00 in 0.0 W/m2 CLR
15:39 52.0 °F 17.2 °F 30.31 in Calm     25% 0.00 in 0.0 W/m2 CLR
15:44 52.0 °F 17.2 °F 30.31 in Calm     25% 0.00 in 0.0 W/m2 CLR
15:54 52.0 °F 17.2 °F 30.31 in Calm     25% 0.00 in 0.0 W/m2 CLR
15:59 52.0 °F 17.2 °F 30.31 in Calm     25% 0.00 in 0.0 W/m2 CLR
16:09 52.0 °F 18.1 °F 30.30 in Calm     26% 0.00 in 0.0 W/m2 CLR
16:14 52.0 °F 18.1 °F 30.30 in Calm     26% 0.00 in 0.0 W/m2 CLR
16:23 52.0 °F 18.1 °F 30.30 in Calm     26% 0.00 in 0.0 W/m2 CLR
16:30 52.0 °F 18.1 °F 30.30 in Calm     26% 0.00 in 0.0 W/m2 CLR
16:40 52.0 °F 18.1 °F 30.30 in Calm     26% 0.00 in 0.0 W/m2 CLR
16:45 52.0 °F 18.1 °F 30.30 in Calm     26% 0.00 in 0.0 W/m2 CLR
16:55 52.0 °F 18.1 °F 30.30 in Calm     26% 0.00 in 0.0 W/m2 CLR
17:00 52.0 °F 18.1 °F 30.30 in Calm     26% 0.00 in 0.0 W/m2 CLR
17:09 52.0 °F 19.8 °F 30.30 in Calm     28% 0.00 in 0.0 W/m2 CLR
17:14 52.0 °F 19.8 °F 30.30 in Calm     28% 0.00 in 0.0 W/m2 CLR
17:24 52.0 °F 19.8 °F 30.30 in Calm     28% 0.00 in 0.0 W/m2 CLR
17:29 52.0 °F 19.8 °F 30.30 in Calm     28% 0.00 in 0.0 W/m2 CLR
17:39 52.0 °F 19.8 °F 30.30 in Calm     28% 0.00 in 0.0 W/m2 CLR
17:44 52.0 °F 19.8 °F 30.30 in Calm     28% 0.00 in 0.0 W/m2 CLR
17:54 52.0 °F 19.8 °F 30.30 in Calm     28% 0.00 in 0.0 W/m2 CLR
17:59 52.0 °F 19.8 °F 30.30 in Calm     28% 0.00 in 0.0 W/m2 CLR
18:09 48.0 °F 21.6 °F 30.32 in Calm     35% 0.00 in 0.0 W/m2 CLR
18:14 48.0 °F 21.6 °F 30.32 in Calm     35% 0.00 in 0.0 W/m2 CLR
18:24 48.0 °F 21.6 °F 30.32 in Calm     35% 0.00 in 0.0 W/m2 CLR
18:29 48.0 °F 21.6 °F 30.32 in Calm     35% 0.00 in 0.0 W/m2 CLR
18:34 48.0 °F 21.6 °F 30.32 in Calm     35% 0.00 in 0.0 W/m2 CLR
18:39 48.0 °F 21.6 °F 30.32 in Calm     35% 0.00 in 0.0 W/m2 CLR
18:44 48.0 °F 21.6 °F 30.32 in Calm     35% 0.00 in 0.0 W/m2 CLR
18:49 48.0 °F 21.6 °F 30.32 in Calm     35% 0.00 in 0.0 W/m2 CLR
18:54 48.0 °F 21.6 °F 30.32 in Calm     35% 0.00 in 0.0 W/m2 CLR
18:59 48.0 °F 21.6 °F 30.32 in Calm     35% 0.00 in 0.0 W/m2 CLR
19:04 45.0 °F 27.9 °F 30.34 in Calm     51% 0.00 in 0.0 W/m2 CLR
19:09 45.0 °F 27.9 °F 30.34 in Calm     51% 0.00 in 0.0 W/m2 CLR
19:14 45.0 °F 27.9 °F 30.34 in Calm     51% 0.00 in 0.0 W/m2 CLR
19:19 45.0 °F 27.9 °F 30.34 in Calm     51% 0.00 in 0.0 W/m2 CLR
19:24 45.0 °F 27.9 °F 30.34 in Calm     51% 0.00 in 0.0 W/m2 CLR
19:29 45.0 °F 27.9 °F 30.34 in Calm     51% 0.00 in 0.0 W/m2 CLR
19:34 45.0 °F 27.9 °F 30.34 in Calm     51% 0.00 in 0.0 W/m2 CLR
19:39 45.0 °F 27.9 °F 30.34 in Calm     51% 0.00 in 0.0 W/m2 CLR
19:44 45.0 °F 27.9 °F 30.34 in Calm     51% 0.00 in 0.0 W/m2 CLR
19:49 45.0 °F 27.9 °F 30.34 in Calm     51% 0.00 in 0.0 W/m2 CLR
19:54 45.0 °F 27.9 °F 30.34 in Calm     51% 0.00 in 0.0 W/m2 CLR
19:59 45.0 °F 27.9 °F 30.34 in Calm     51% 0.00 in 0.0 W/m2 CLR
20:04 42.1 °F 27.9 °F 30.35 in Calm     57% 0.00 in 0.0 W/m2 CLR
20:09 42.1 °F 27.9 °F 30.35 in Calm     57% 0.00 in 0.0 W/m2 CLR
20:14 42.1 °F 27.9 °F 30.35 in Calm     57% 0.00 in 0.0 W/m2 CLR
20:19 42.1 °F 27.9 °F 30.35 in Calm     57% 0.00 in 0.0 W/m2 CLR
20:24 42.1 °F 27.9 °F 30.35 in Calm     57% 0.00 in 0.0 W/m2 CLR
20:29 42.1 °F 27.9 °F 30.35 in Calm     57% 0.00 in 0.0 W/m2 CLR
20:34 42.1 °F 27.9 °F 30.35 in Calm     57% 0.00 in 0.0 W/m2 CLR
20:39 42.1 °F 27.9 °F 30.35 in Calm     57% 0.00 in 0.0 W/m2 CLR
20:44 42.1 °F 27.9 °F 30.35 in Calm     57% 0.00 in 0.0 W/m2 CLR
20:49 42.1 °F 27.9 °F 30.35 in Calm     57% 0.00 in 0.0 W/m2 CLR
20:54 42.1 °F 27.9 °F 30.35 in Calm     57% 0.00 in 0.0 W/m2 CLR
20:59 42.1 °F 27.9 °F 30.35 in Calm     57% 0.00 in 0.0 W/m2 CLR
21:04 41.0 °F 29.7 °F 30.36 in Calm     64% 0.00 in 0.0 W/m2 CLR
21:09 41.0 °F 29.7 °F 30.36 in Calm     64% 0.00 in 0.0 W/m2 CLR
21:14 41.0 °F 29.7 °F 30.36 in Calm     64% 0.00 in 0.0 W/m2 CLR
21:19 41.0 °F 29.7 °F 30.36 in Calm     64% 0.00 in 0.0 W/m2 CLR
21:24 41.0 °F 29.7 °F 30.36 in Calm     64% 0.00 in 0.0 W/m2 CLR
21:29 41.0 °F 29.7 °F 30.36 in Calm     64% 0.00 in 0.0 W/m2 CLR
21:34 41.0 °F 29.7 °F 30.36 in Calm     64% 0.00 in 0.0 W/m2 CLR
21:39 41.0 °F 29.7 °F 30.36 in Calm     64% 0.00 in 0.0 W/m2 CLR
21:44 41.0 °F 29.7 °F 30.36 in Calm     64% 0.00 in 0.0 W/m2 CLR
21:49 41.0 °F 29.7 °F 30.36 in Calm     64% 0.00 in 0.0 W/m2 CLR
21:54 41.0 °F 29.7 °F 30.36 in Calm     64% 0.00 in 0.0 W/m2 CLR
21:56 41.0 °F 29.7 °F 30.36 in Calm     64% 0.00 in 0.0 W/m2 CLR
22:01 37.9 °F 25.7 °F 30.38 in Calm     61% 0.00 in 0.0 W/m2 CLR
22:06 37.9 °F 25.7 °F 30.38 in Calm     61% 0.00 in 0.0 W/m2 CLR
22:11 37.9 °F 25.7 °F 30.38 in Calm     61% 0.00 in 0.0 W/m2 CLR
22:16 37.9 °F 25.7 °F 30.38 in Calm     61% 0.00 in 0.0 W/m2 CLR
22:21 37.9 °F 25.7 °F 30.38 in Calm     61% 0.00 in 0.0 W/m2 CLR
22:26 37.9 °F 25.7 °F 30.38 in Calm     61% 0.00 in 0.0 W/m2 CLR
22:31 37.9 °F 25.7 °F 30.38 in Calm     61% 0.00 in 0.0 W/m2 CLR
22:36 37.9 °F 25.7 °F 30.38 in Calm     61% 0.00 in 0.0 W/m2 CLR
22:41 37.9 °F 25.7 °F 30.38 in Calm     61% 0.00 in 0.0 W/m2 CLR
22:46 37.9 °F 25.7 °F 30.38 in Calm     61% 0.00 in 0.0 W/m2 CLR
22:51 37.9 °F 25.7 °F 30.38 in Calm     61% 0.00 in 0.0 W/m2 CLR
22:56 37.9 °F 25.7 °F 30.38 in Calm     61% 0.00 in 0.0 W/m2 CLR
23:01 36.0 °F 26.8 °F 30.38 in Calm     69% 0.00 in 0.0 W/m2 CLR
23:06 36.0 °F 26.8 °F 30.38 in Calm     69% 0.00 in 0.0 W/m2 CLR
23:11 36.0 °F 26.8 °F 30.38 in Calm     69% 0.00 in 0.0 W/m2 CLR
23:16 36.0 °F 26.8 °F 30.38 in Calm     69% 0.00 in 0.0 W/m2 CLR
23:21 36.0 °F 26.8 °F 30.38 in Calm     69% 0.00 in 0.0 W/m2 CLR
23:26 36.0 °F 26.8 °F 30.38 in Calm     69% 0.00 in 0.0 W/m2 CLR
23:31 36.0 °F 26.8 °F 30.38 in Calm     69% 0.00 in 0.0 W/m2 CLR
23:36 36.0 °F 26.8 °F 30.38 in Calm     69% 0.00 in 0.0 W/m2 CLR
23:41 36.0 °F 26.8 °F 30.38 in Calm     69% 0.00 in 0.0 W/m2 CLR
23:46 36.0 °F 26.8 °F 30.38 in Calm     69% 0.00 in 0.0 W/m2 CLR
23:51 36.0 °F 26.8 °F 30.38 in Calm     69% 0.00 in 0.0 W/m2 CLR
23:56 36.0 °F 26.8 °F 30.38 in Calm     69% 0.00 in 0.0 W/m2 CLR
Lake Mary, FL, USA
Compliments of Weather Underground - 1.75 mb